Time;durP1;ratioP1;P1;durP2;ratioP2;P2;SDS_P1;SDS_P2;PMS_P1;PMS_P2;Temp;Humidity;BMP_temperature;BMP_pressure;BME280_temperature;BME280_humidity;BME280_pressure;Samples;Min_cycle;Max_cycle;Signal;HPM_P1;HPM_P2
2023/08/25 00:01:58;;;;;;;8.57;3.50;;;14.50;99.90;;;;;;1881852;75;25681;-86
2023/08/25 00:04:48;;;;;;;8.17;3.20;;;14.50;99.90;;;;;;1873388;75;25380;-86
2023/08/25 00:07:36;;;;;;;5.07;3.70;;;14.60;99.90;;;;;;1885023;75;25232;-86
2023/08/25 00:13:07;;;;;;;9.17;3.83;;;14.60;99.90;;;;;;1974573;70;27382;-86
2023/08/25 00:15:55;;;;;;;4.77;3.60;;;14.60;99.90;;;;;;1938115;72;25521;-86
2023/08/25 00:18:45;;;;;;;12.10;3.53;;;14.70;99.90;;;;;;1944126;72;25716;-86
2023/08/25 00:21:34;;;;;;;6.47;3.77;;;14.70;99.90;;;;;;1945142;72;25231;-86
2023/08/25 00:24:23;;;;;;;4.50;3.30;;;14.70;99.90;;;;;;1950390;72;25155;-86
2023/08/25 00:27:11;;;;;;;13.00;3.67;;;14.70;99.90;;;;;;1940303;72;25152;-86
2023/08/25 00:30:00;;;;;;;9.13;3.80;;;14.70;99.90;;;;;;1930878;72;25698;-86
2023/08/25 00:32:49;;;;;;;5.97;3.10;;;14.70;99.90;;;;;;1931281;72;25178;-86
2023/08/25 00:35:40;;;;;;;9.10;3.40;;;14.70;99.90;;;;;;1941219;72;25215;-86
2023/08/25 00:38:29;;;;;;;4.77;3.47;;;14.70;99.90;;;;;;1942939;72;25797;-86
2023/08/25 00:41:18;;;;;;;6.80;2.87;;;14.80;99.90;;;;;;1949739;72;25773;-86
2023/08/25 00:44:07;;;;;;;5.90;3.20;;;14.80;99.90;;;;;;1962533;72;25168;-86
2023/08/25 00:46:56;;;;;;;8.57;3.30;;;14.80;99.90;;;;;;1962441;71;25806;-86
2023/08/25 00:49:45;;;;;;;9.60;3.50;;;14.80;99.90;;;;;;1960338;71;25239;-86
2023/08/25 00:52:34;;;;;;;4.23;3.10;;;14.80;99.90;;;;;;1959831;71;25160;-86
2023/08/25 00:55:23;;;;;;;8.57;3.97;;;14.90;99.90;;;;;;1954390;71;25220;-86
2023/08/25 01:01:10;;;;;;;8.83;4.00;;;14.90;99.90;;;;;;1951346;72;27535;-85
2023/08/25 01:06:40;;;;;;;9.43;4.30;;;14.90;99.90;;;;;;1923721;72;27075;-86
2023/08/25 01:09:29;;;;;;;12.23;4.63;;;15.00;99.90;;;;;;1914698;74;25232;-86
2023/08/25 01:12:27;;;;;;;8.60;4.73;;;15.10;99.90;;;;;;1896925;74;25229;-86
2023/08/25 01:15:16;;;;;;;12.57;4.20;;;15.10;99.90;;;;;;1916068;73;25315;-86
2023/08/25 01:18:09;;;;;;;9.27;4.07;;;15.10;99.90;;;;;;1881547;75;25775;-86
2023/08/25 01:20:59;;;;;;;14.20;4.33;;;15.10;99.90;;;;;;1859221;75;25245;-86
2023/08/25 01:26:38;;;;;;;9.43;3.90;;;15.30;99.90;;;;;;1945884;72;27034;-86
2023/08/25 01:29:27;;;;;;;14.33;4.50;;;15.40;99.90;;;;;;1921923;73;25225;-86
2023/08/25 01:32:16;;;;;;;12.10;4.60;;;15.50;99.90;;;;;;1930829;73;25163;-86
2023/08/25 01:35:06;;;;;;;10.80;3.83;;;15.50;99.90;;;;;;1921114;73;25700;-86
2023/08/25 01:40:44;;;;;;;9.77;4.60;;;15.50;99.90;;;;;;1942769;72;26966;-86
2023/08/25 01:46:18;;;;;;;11.33;3.97;;;15.50;99.90;;;;;;1934365;72;27077;-86
2023/08/25 01:49:08;;;;;;;8.07;4.27;;;15.50;99.90;;;;;;1901178;75;25673;-86
2023/08/25 01:51:57;;;;;;;11.23;3.77;;;15.50;99.90;;;;;;1884763;73;25708;-86
2023/08/25 01:57:27;;;;;;;17.17;4.73;;;15.60;99.90;;;;;;1925913;72;27115;-86
2023/08/25 02:00:19;;;;;;;8.03;4.63;;;15.60;99.90;;;;;;1910773;73;25239;-85
2023/08/25 02:03:08;;;;;;;10.73;4.27;;;15.70;99.90;;;;;;1909147;73;25285;-86
2023/08/25 02:05:57;;;;;;;8.90;4.27;;;15.80;99.90;;;;;;1910983;74;25299;-86
2023/08/25 02:08:46;;;;;;;14.27;4.40;;;15.90;99.90;;;;;;1846165;76;25181;-86
2023/08/25 02:11:35;;;;;;;4.87;3.80;;;15.90;99.90;;;;;;1852419;77;25210;-86
2023/08/25 02:14:23;;;;;;;7.07;4.03;;;15.90;99.90;;;;;;1845476;76;25234;-86
2023/08/25 02:17:12;;;;;;;10.73;4.17;;;15.80;99.90;;;;;;1912163;74;25262;-86
2023/08/25 02:20:00;;;;;;;10.77;4.40;;;15.80;99.90;;;;;;1866536;75;25246;-86
2023/08/25 02:22:49;;;;;;;10.20;4.50;;;15.80;99.90;;;;;;1846792;77;25273;-85
2023/08/25 02:25:38;;;;;;;12.57;4.97;;;15.80;99.90;;;;;;1846034;76;25348;-86
2023/08/25 02:31:19;;;;;;;18.47;4.67;;;15.70;99.90;;;;;;1949717;72;27053;-86
2023/08/25 02:34:07;;;;;;;11.13;4.10;;;15.70;99.90;;;;;;1931390;73;25678;-86
2023/08/25 02:36:57;;;;;;;19.40;4.63;;;15.80;99.90;;;;;;1922873;73;25534;-86
2023/08/25 02:39:46;;;;;;;9.10;4.60;;;15.80;99.90;;;;;;1925491;73;25197;-86
2023/08/25 02:42:34;;;;;;;8.07;4.40;;;15.80;99.90;;;;;;1914642;73;25714;-86
2023/08/25 02:48:10;;;;;;;13.00;5.00;;;15.70;99.90;;;;;;1942689;72;26942;-85
2023/08/25 02:50:59;;;;;;;13.00;4.70;;;15.60;99.90;;;;;;1943638;73;25179;-85
2023/08/25 02:53:48;;;;;;;11.30;4.50;;;15.60;99.90;;;;;;1897588;74;25274;-87
2023/08/25 02:56:37;;;;;;;12.97;5.30;;;15.60;99.90;;;;;;1903561;75;25293;-87
2023/08/25 02:59:25;;;;;;;10.47;4.80;;;15.60;99.90;;;;;;1900769;74;25185;-87
2023/08/25 03:02:14;;;;;;;8.30;4.40;;;15.60;99.90;;;;;;1865751;74;25765;-87
2023/08/25 03:07:44;;;;;;;19.43;5.03;;;15.50;99.90;;;;;;1938375;72;27531;-86
2023/08/25 03:10:32;;;;;;;6.43;4.60;;;15.40;99.90;;;;;;1863212;76;25286;-86
2023/08/25 03:16:02;;;;;;;12.00;3.93;;;15.50;99.90;;;;;;1941573;72;27160;-86
2023/08/25 03:18:51;;;;;;;6.37;4.20;;;15.40;99.90;;;;;;1873933;75;25265;-86
2023/08/25 03:21:39;;;;;;;12.93;4.60;;;15.50;99.90;;;;;;1915575;75;25271;-86
2023/08/25 03:24:27;;;;;;;7.93;4.37;;;15.40;99.90;;;;;;1908952;74;25628;-86
2023/08/25 03:27:16;;;;;;;10.10;4.33;;;15.40;99.90;;;;;;1914955;74;26620;-86
2023/08/25 03:30:06;;;;;;;8.83;3.57;;;15.50;99.90;;;;;;1911193;74;25652;-89
2023/08/25 03:32:55;;;;;;;10.27;3.57;;;15.50;99.90;;;;;;1911329;74;25176;-89
2023/08/25 03:35:43;;;;;;;7.23;3.10;;;15.60;99.90;;;;;;1904597;74;25229;-89
2023/08/25 03:38:32;;;;;;;5.90;3.30;;;15.60;99.90;;;;;;1901136;74;25307;-90
2023/08/25 03:41:21;;;;;;;5.53;2.83;;;15.50;99.90;;;;;;1906938;74;25262;-90
2023/08/25 03:44:09;;;;;;;6.03;3.20;;;15.50;99.90;;;;;;1866269;75;25648;-90
2023/08/25 03:50:13;;;;;;;6.93;3.53;;;15.40;99.90;;;;;;1977584;71;27474;-89
2023/08/25 03:53:02;;;;;;;7.10;3.10;;;15.40;99.90;;;;;;2016169;70;25270;-89
2023/08/25 03:55:51;;;;;;;9.40;3.07;;;15.40;99.90;;;;;;2020734;69;25711;-90
2023/08/25 03:58:39;;;;;;;8.53;2.80;;;15.40;99.90;;;;;;2018887;69;25145;-89
2023/08/25 04:01:28;;;;;;;6.93;2.50;;;15.50;99.90;;;;;;2026142;69;25552;-89
2023/08/25 04:04:17;;;;;;;5.10;2.70;;;15.40;99.90;;;;;;2016917;69;25742;-89
2023/08/25 04:07:05;;;;;;;11.33;2.67;;;15.40;99.90;;;;;;2022262;69;25264;-89
2023/08/25 04:09:56;;;;;;;5.93;2.70;;;15.40;99.90;;;;;;2012685;69;25239;-89
2023/08/25 04:12:44;;;;;;;5.57;2.67;;;15.40;99.90;;;;;;2022025;70;25229;-89
2023/08/25 04:15:33;;;;;;;4.57;2.63;;;15.40;99.90;;;;;;2013909;70;25228;-89
2023/08/25 04:18:21;;;;;;;3.13;2.40;;;15.40;99.90;;;;;;2020120;69;25183;-90
2023/08/25 04:21:11;;;;;;;5.10;2.37;;;15.40;99.90;;;;;;2025155;69;25221;-89
2023/08/25 04:23:59;;;;;;;6.27;2.30;;;15.50;99.90;;;;;;2015377;70;25270;-89
2023/08/25 04:26:49;;;;;;;4.77;2.57;;;15.50;99.90;;;;;;2010495;70;25229;-89
2023/08/25 04:29:37;;;;;;;6.77;2.40;;;15.50;99.90;;;;;;2018052;69;25270;-89
2023/08/25 04:36:14;;;;;;;14.03;3.03;;;15.50;99.90;;;;;;1985649;71;26854;-89
2023/08/25 04:39:05;;;;;;;7.87;3.00;;;15.50;99.90;;;;;;2025086;69;25183;-90
2023/08/25 04:41:54;;;;;;;5.40;2.37;;;15.40;99.90;;;;;;2027866;69;25693;-89
2023/08/25 04:44:44;;;;;;;6.57;2.50;;;15.50;99.90;;;;;;2045673;69;25217;-90
2023/08/25 04:47:33;;;;;;;3.93;2.20;;;15.50;99.90;;;;;;2043993;69;25139;-89
2023/08/25 04:50:22;;;;;;;8.10;2.23;;;15.50;99.90;;;;;;2045125;69;25254;-89
2023/08/25 04:53:11;;;;;;;3.50;2.23;;;15.40;99.90;;;;;;2064938;69;25266;-90
2023/08/25 04:59:30;;;;;;;2.97;1.93;;;15.40;99.90;;;;;;1975726;71;26761;-89
2023/08/25 05:02:18;;;;;;;5.10;2.20;;;15.40;99.90;;;;;;2021406;69;25244;-89
2023/08/25 05:05:11;;;;;;;7.20;2.30;;;15.50;99.90;;;;;;2023264;69;25209;-89
2023/08/25 05:10:44;;;;;;;3.17;2.40;;;15.50;99.90;;;;;;1946045;72;26997;-89
2023/08/25 05:13:33;;;;;;;3.00;2.27;;;15.50;99.90;;;;;;1930900;73;25267;-92
2023/08/25 05:16:22;;;;;;;3.20;2.23;;;15.50;99.90;;;;;;1930644;73;25273;-91
2023/08/25 05:19:13;;;;;;;5.00;2.50;;;15.50;99.90;;;;;;1928661;73;25267;-91
2023/08/25 05:22:01;;;;;;;5.67;2.20;;;15.50;99.90;;;;;;1940005;73;25324;-91
2023/08/25 05:24:49;;;;;;;6.70;2.63;;;15.60;99.90;;;;;;1931924;73;25197;-91
2023/08/25 05:27:38;;;;;;;5.63;3.03;;;15.60;99.90;;;;;;1925051;73;25172;-91
2023/08/25 05:30:27;;;;;;;7.10;2.20;;;15.60;99.90;;;;;;1918745;73;25305;-91
2023/08/25 05:33:16;;;;;;;5.47;2.30;;;15.70;99.90;;;;;;1918998;73;25307;-91
2023/08/25 05:36:05;;;;;;;5.20;2.27;;;15.60;99.90;;;;;;1926898;73;25278;-89
2023/08/25 05:38:54;;;;;;;4.07;2.27;;;15.50;99.90;;;;;;1925937;73;25214;-90
2023/08/25 05:41:43;;;;;;;6.20;2.00;;;15.60;99.90;;;;;;1917829;73;25308;-90
2023/08/25 05:47:13;;;;;;;3.77;2.40;;;15.60;99.90;;;;;;1951897;72;27051;-89
2023/08/25 05:52:41;;;;;;;3.50;2.50;;;15.80;99.90;;;;;;1965830;72;27487;-89
2023/08/25 05:55:30;;;;;;;4.07;2.50;;;15.70;99.90;;;;;;1921529;73;25174;-88
2023/08/25 05:58:19;;;;;;;6.53;3.00;;;15.70;99.90;;;;;;1930857;73;25247;-86
2023/08/25 06:01:08;;;;;;;5.73;3.00;;;15.60;99.90;;;;;;1925434;73;25269;-86
2023/08/25 06:03:57;;;;;;;9.50;3.20;;;15.70;99.90;;;;;;1910902;73;25380;-86
2023/08/25 06:06:46;;;;;;;6.47;3.00;;;15.80;99.90;;;;;;1917234;73;25251;-86
2023/08/25 06:09:34;;;;;;;8.40;3.13;;;15.80;99.90;;;;;;1920267;73;25243;-86
2023/08/25 06:12:23;;;;;;;7.97;2.83;;;15.80;99.90;;;;;;1915515;73;25289;-86
2023/08/25 06:15:12;;;;;;;6.53;2.80;;;15.90;99.90;;;;;;1930889;73;25271;-86
2023/08/25 06:18:01;;;;;;;6.37;2.50;;;16.00;99.90;;;;;;1924584;73;25267;-86
2023/08/25 06:20:52;;;;;;;6.97;2.50;;;16.10;99.90;;;;;;1934713;73;25621;-86
2023/08/25 06:23:42;;;;;;;10.80;2.57;;;16.10;99.90;;;;;;1927140;73;25260;-86
2023/08/25 06:26:30;;;;;;;5.83;2.47;;;16.20;99.90;;;;;;1945677;73;25158;-86
2023/08/25 06:29:18;;;;;;;3.27;2.30;;;16.20;99.90;;;;;;1919679;73;25253;-86
2023/08/25 06:32:07;;;;;;;8.07;2.60;;;16.20;99.90;;;;;;1923639;73;25252;-86
2023/08/25 06:34:56;;;;;;;6.60;2.53;;;16.20;99.90;;;;;;1930079;73;25159;-86
2023/08/25 06:37:45;;;;;;;5.57;2.70;;;16.20;99.90;;;;;;1912639;73;25209;-86
2023/08/25 06:40:34;;;;;;;3.27;2.30;;;16.20;99.90;;;;;;1917252;73;25288;-87
2023/08/25 06:43:23;;;;;;;5.10;3.00;;;16.30;99.90;;;;;;1894341;74;25700;-87
2023/08/25 06:46:12;;;;;;;5.77;2.80;;;16.30;99.90;;;;;;1892956;75;25225;-87
2023/08/25 06:49:00;;;;;;;8.30;2.67;;;16.30;99.90;;;;;;1896343;75;25198;-87
2023/08/25 06:51:49;;;;;;;8.10;2.90;;;16.40;99.90;;;;;;1910937;74;25758;-87
2023/08/25 06:54:38;;;;;;;7.53;3.10;;;16.50;99.90;;;;;;1904911;74;25169;-87
2023/08/25 07:00:13;;;;;;;8.60;3.00;;;16.50;99.90;;;;;;2024419;69;26998;-88
2023/08/25 07:03:03;;;;;;;6.70;2.93;;;16.50;99.90;;;;;;2000461;71;25710;-88
2023/08/25 07:05:53;;;;;;;5.23;2.57;;;16.40;99.90;;;;;;2006385;71;25211;-88
2023/08/25 07:08:42;;;;;;;6.37;2.70;;;16.40;99.90;;;;;;2003540;71;25787;-88
2023/08/25 07:11:31;;;;;;;7.00;2.50;;;16.40;99.90;;;;;;2000471;71;25273;-88
2023/08/25 07:14:20;;;;;;;3.70;2.57;;;16.40;99.90;;;;;;2001785;71;25140;-88
2023/08/25 07:19:48;;;;;;;5.07;3.03;;;16.40;99.90;;;;;;1941948;72;27011;-87
2023/08/25 07:22:37;;;;;;;8.53;2.87;;;16.30;99.90;;;;;;1916937;73;25271;-87
2023/08/25 07:25:25;;;;;;;10.43;2.80;;;16.30;99.90;;;;;;1923152;73;25292;-89
2023/08/25 07:28:15;;;;;;;10.40;3.03;;;16.30;99.90;;;;;;1918507;73;25355;-90
2023/08/25 07:31:04;;;;;;;6.73;2.93;;;16.10;99.90;;;;;;1918055;73;25632;-90
2023/08/25 07:36:34;;;;;;;8.27;2.80;;;16.20;99.90;;;;;;1925746;72;27632;-88
2023/08/25 07:39:23;;;;;;;9.33;3.10;;;16.10;99.90;;;;;;1907977;75;25671;-88
2023/08/25 07:42:12;;;;;;;6.67;3.17;;;16.10;99.90;;;;;;1897840;75;25779;-88
2023/08/25 07:45:01;;;;;;;6.50;3.20;;;16.00;99.90;;;;;;1869357;75;25270;-88
2023/08/25 07:47:50;;;;;;;6.87;3.40;;;15.90;99.90;;;;;;1880207;75;25257;-88
2023/08/25 07:50:38;;;;;;;11.67;3.30;;;15.80;99.90;;;;;;1871677;75;25790;-88
2023/08/25 07:56:09;;;;;;;10.57;3.27;;;15.80;99.90;;;;;;1948077;72;27153;-88
2023/08/25 07:58:58;;;;;;;9.03;3.20;;;15.90;99.90;;;;;;1927890;72;25331;-88
2023/08/25 08:01:46;;;;;;;9.27;3.23;;;15.90;99.90;;;;;;1927069;72;25896;-88
2023/08/25 08:07:19;;;;;;;5.50;3.13;;;16.00;99.90;;;;;;1946679;72;26878;-88
2023/08/25 08:10:10;;;;;;;5.13;2.47;;;15.90;99.90;;;;;;1935583;72;25287;-87
2023/08/25 08:13:00;;;;;;;7.50;3.30;;;16.00;99.90;;;;;;1933523;72;25258;-88
2023/08/25 08:15:49;;;;;;;7.33;3.23;;;15.90;99.90;;;;;;1927071;72;25257;-88
2023/08/25 08:18:38;;;;;;;5.43;2.70;;;15.80;99.90;;;;;;1943391;72;25783;-88
2023/08/25 08:21:27;;;;;;;4.73;3.17;;;15.90;99.90;;;;;;1937230;72;25312;-88
2023/08/25 08:24:16;;;;;;;8.50;3.47;;;15.90;99.90;;;;;;1931054;73;25242;-89
2023/08/25 08:27:05;;;;;;;10.27;3.70;;;16.00;99.90;;;;;;1943878;72;25242;-89
2023/08/25 08:32:39;;;;;;;8.63;3.37;;;16.10;99.90;;;;;;1938180;72;27137;-89
2023/08/25 08:35:27;;;;;;;6.57;3.70;;;16.20;99.90;;;;;;1894729;75;25231;-89
2023/08/25 08:38:16;;;;;;;13.07;4.27;;;16.10;99.90;;;;;;1894649;75;25176;-89
2023/08/25 08:43:52;;;;;;;8.63;4.20;;;16.10;99.90;;;;;;1929069;72;27595;-89
2023/08/25 08:46:43;;;;;;;11.43;4.40;;;16.10;99.90;;;;;;1903245;73;26050;-89
2023/08/25 08:52:14;;;;;;;10.67;4.00;;;16.10;99.90;;;;;;1937421;72;27077;-88
2023/08/25 08:55:04;;;;;;;8.10;4.13;;;16.00;99.90;;;;;;1896552;75;25851;-91
2023/08/25 08:57:53;;;;;;;7.77;3.60;;;16.10;99.90;;;;;;1900316;75;25832;-90
2023/08/25 09:00:42;;;;;;;6.67;3.50;;;16.10;99.90;;;;;;1901440;75;25724;-90
2023/08/25 09:03:35;;;;;;;6.67;3.70;;;16.10;99.90;;;;;;1911206;75;25455;-91
2023/08/25 09:06:24;;;;;;;5.00;3.17;;;16.00;99.90;;;;;;1883637;75;25242;-91
2023/08/25 09:09:14;;;;;;;18.23;4.10;;;16.00;99.90;;;;;;1888123;75;25549;-91
2023/08/25 09:12:03;;;;;;;11.40;3.50;;;16.20;99.90;;;;;;1888237;74;26518;-90
2023/08/25 09:14:52;;;;;;;6.47;3.40;;;16.10;99.90;;;;;;1894267;75;25310;-90
2023/08/25 09:17:40;;;;;;;10.90;3.90;;;16.10;99.90;;;;;;1903349;75;25236;-89
2023/08/25 09:20:29;;;;;;;6.67;3.37;;;16.10;99.90;;;;;;1903156;74;25678;-89
2023/08/25 09:23:18;;;;;;;6.83;3.13;;;16.20;99.90;;;;;;1897966;74;25257;-88
2023/08/25 09:26:07;;;;;;;6.40;3.60;;;16.30;99.90;;;;;;1904152;74;25426;-88
2023/08/25 09:31:39;;;;;;;7.70;3.50;;;16.40;99.90;;;;;;1928358;72;27574;-88
2023/08/25 09:34:28;;;;;;;4.93;3.13;;;16.40;99.90;;;;;;1915831;74;25288;-88
2023/08/25 09:37:16;;;;;;;4.57;3.23;;;16.50;99.90;;;;;;1864254;76;25293;-88
2023/08/25 09:40:09;;;;;;;3.77;3.00;;;16.60;99.90;;;;;;1836663;76;25259;-86
2023/08/25 09:43:02;;;;;;;3.57;2.93;;;16.80;99.90;;;;;;1802149;78;25885;-88
2023/08/25 09:48:37;;;;;;;6.50;3.13;;;16.80;99.90;;;;;;1934323;72;27049;-87
2023/08/25 09:51:28;;;;;;;5.70;3.07;;;16.70;99.90;;;;;;1915392;75;25271;-87
2023/08/25 09:54:18;;;;;;;4.90;3.20;;;16.70;99.90;;;;;;1904145;75;25213;-87
2023/08/25 09:59:53;;;;;;;5.77;3.00;;;16.70;99.90;;;;;;1940302;72;27549;-88
2023/08/25 10:02:43;;;;;;;5.80;3.23;;;17.00;99.90;;;;;;1886855;75;25338;-88
2023/08/25 10:05:33;;;;;;;9.13;2.43;;;17.30;99.90;;;;;;1908253;75;25266;-88
2023/08/25 10:08:23;;;;;;;11.33;3.17;;;17.10;99.90;;;;;;1879245;75;25331;-88
2023/08/25 10:11:13;;;;;;;6.97;2.70;;;17.30;99.90;;;;;;1898380;75;25304;-88
2023/08/25 10:14:06;;;;;;;5.97;2.50;;;17.20;99.90;;;;;;1889979;75;25263;-88
2023/08/25 10:16:54;;;;;;;6.47;2.67;;;17.10;99.90;;;;;;1884999;75;25166;-88
2023/08/25 10:22:41;;;;;;;5.27;2.30;;;17.30;99.90;;;;;;1944848;72;26959;-88
2023/08/25 10:25:32;;;;;;;5.73;2.70;;;17.30;99.90;;;;;;1927401;73;25787;-87
2023/08/25 10:28:20;;;;;;;4.33;2.30;;;17.20;99.90;;;;;;1922507;73;25248;-87
2023/08/25 10:31:09;;;;;;;4.93;2.50;;;17.30;99.90;;;;;;1929508;73;25660;-88
2023/08/25 10:33:59;;;;;;;3.13;2.20;;;17.30;99.90;;;;;;1931692;73;25786;-87
2023/08/25 10:36:50;;;;;;;3.73;2.17;;;17.00;99.90;;;;;;1917922;73;25192;-87
2023/08/25 10:39:50;;;;;;;5.67;2.33;;;17.10;99.90;;;;;;1920311;73;25154;-87
2023/08/25 10:42:39;;;;;;;4.50;2.20;;;17.20;99.90;;;;;;1905497;73;25298;-87
2023/08/25 10:45:29;;;;;;;5.13;2.40;;;17.20;99.90;;;;;;1906855;73;25301;-87
2023/08/25 10:48:19;;;;;;;3.73;2.30;;;17.30;99.90;;;;;;1918550;73;25919;-87
2023/08/25 10:53:50;;;;;;;7.90;2.20;;;17.10;99.90;;;;;;1934864;72;27034;-88
2023/08/25 10:56:39;;;;;;;6.47;2.30;;;17.20;99.90;;;;;;1905468;74;25297;-88
2023/08/25 10:59:28;;;;;;;5.07;2.60;;;17.30;99.90;;;;;;1892384;75;25232;-88
2023/08/25 11:05:41;;;;;;;4.27;2.27;;;17.20;99.90;;;;;;1942395;72;27037;-87
2023/08/25 11:08:31;;;;;;;5.17;2.87;;;17.20;99.90;;;;;;1924516;73;25269;-88
2023/08/25 11:11:21;;;;;;;5.47;2.40;;;17.20;99.90;;;;;;1923648;73;25701;-88
2023/08/25 11:14:09;;;;;;;3.93;2.37;;;17.20;99.90;;;;;;1932927;73;25167;-89
2023/08/25 11:16:58;;;;;;;3.53;2.20;;;17.20;99.90;;;;;;1939787;73;25273;-89
2023/08/25 11:19:48;;;;;;;7.70;2.50;;;17.10;99.90;;;;;;1929115;73;25221;-89
2023/08/25 11:22:37;;;;;;;7.90;2.70;;;17.10;99.90;;;;;;1919068;73;25260;-90
2023/08/25 11:25:27;;;;;;;5.23;2.50;;;17.10;99.90;;;;;;1928434;73;25288;-90
2023/08/25 11:28:16;;;;;;;4.63;2.40;;;17.10;99.90;;;;;;1924783;73;25203;-89
2023/08/25 11:31:07;;;;;;;4.13;2.50;;;17.00;99.90;;;;;;1926299;73;25261;-89
2023/08/25 11:36:36;;;;;;;5.77;2.80;;;16.80;99.90;;;;;;1924477;72;27525;-88
2023/08/25 11:39:25;;;;;;;5.27;2.80;;;16.90;99.90;;;;;;1901513;74;25645;-88
2023/08/25 11:44:53;;;;;;;7.30;2.67;;;16.80;99.90;;;;;;1951417;71;27069;-88
2023/08/25 11:47:41;;;;;;;6.00;2.93;;;16.70;99.90;;;;;;1930161;73;25294;-88
2023/08/25 11:50:31;;;;;;;6.03;2.97;;;16.60;99.90;;;;;;1940835;73;25264;-88
2023/08/25 11:53:19;;;;;;;7.07;2.80;;;16.50;99.90;;;;;;1948018;73;25220;-88
2023/08/25 11:56:10;;;;;;;9.63;2.93;;;16.30;99.90;;;;;;1962664;72;25199;-88
2023/08/25 11:59:00;;;;;;;6.10;2.67;;;16.00;99.90;;;;;;1924876;73;25850;-89
2023/08/25 12:01:51;;;;;;;6.60;2.70;;;15.60;99.90;;;;;;1917693;72;25756;-88
2023/08/25 12:07:23;;;;;;;3.47;2.30;;;15.50;99.90;;;;;;1934141;72;27022;-89
2023/08/25 12:12:57;;;;;;;4.63;2.03;;;15.60;99.90;;;;;;1940675;72;27567;-88
2023/08/25 12:15:47;;;;;;;7.37;2.20;;;15.70;99.90;;;;;;1917862;73;25313;-89
2023/08/25 12:18:37;;;;;;;3.67;2.00;;;15.70;99.90;;;;;;1921691;73;25266;-88
2023/08/25 12:24:06;;;;;;;2.10;1.87;;;15.50;99.90;;;;;;1924539;72;27077;-88
2023/08/25 12:26:55;;;;;;;4.93;2.10;;;15.60;99.90;;;;;;1924796;73;25233;-89
2023/08/25 12:29:44;;;;;;;5.93;2.20;;;15.60;99.90;;;;;;1931085;73;25489;-88
2023/08/25 12:32:33;;;;;;;4.90;2.40;;;15.70;99.90;;;;;;1931715;73;25291;-88
2023/08/25 12:35:23;;;;;;;5.20;2.10;;;15.80;99.90;;;;;;1939761;73;25236;-89
2023/08/25 12:38:11;;;;;;;3.53;2.20;;;16.00;99.90;;;;;;1936513;73;26773;-89
2023/08/25 12:41:04;;;;;;;3.43;1.80;;;16.20;99.90;;;;;;1939165;73;25169;-89
2023/08/25 12:46:44;;;;;;;4.07;2.13;;;16.60;99.90;;;;;;2023048;69;26961;-89
2023/08/25 12:49:32;;;;;;;6.60;2.00;;;16.80;99.90;;;;;;1992512;71;25231;-89
2023/08/25 12:52:21;;;;;;;4.20;1.90;;;17.10;99.90;;;;;;2004852;70;25155;-89
2023/08/25 12:55:14;;;;;;;2.07;1.87;;;17.30;99.90;;;;;;1998570;70;25194;-89
2023/08/25 12:58:01;;;;;;;7.23;2.30;;;17.30;99.90;;;;;;2008113;70;25258;-89
2023/08/25 13:00:49;;;;;;;7.23;2.23;;;17.10;99.90;;;;;;2002635;70;25612;-89
2023/08/25 13:06:23;;;;;;;4.43;2.20;;;17.20;99.90;;;;;;1945550;72;27355;-89
2023/08/25 13:12:26;;;;;;;6.23;2.23;;;17.10;99.90;;;;;;1984630;71;27602;-89
2023/08/25 13:18:09;;;;;;;4.03;1.93;;;16.70;99.90;;;;;;1952395;72;27109;-89
2023/08/25 13:20:58;;;;;;;3.20;1.60;;;16.60;99.90;;;;;;1916857;73;25304;-89
2023/08/25 13:23:47;;;;;;;4.37;2.13;;;16.60;99.90;;;;;;1918373;73;25338;-89
2023/08/25 13:26:36;;;;;;;4.57;1.90;;;16.40;99.90;;;;;;1920040;73;25249;-89
2023/08/25 13:29:25;;;;;;;3.90;1.80;;;16.40;99.90;;;;;;1917970;73;25278;-89
2023/08/25 13:32:14;;;;;;;2.77;1.90;;;16.40;99.90;;;;;;1915964;75;25147;-89
2023/08/25 13:35:02;;;;;;;3.00;1.63;;;16.20;99.90;;;;;;1918642;73;25240;-89
2023/08/25 13:37:51;;;;;;;5.40;2.07;;;16.10;99.90;;;;;;1924870;73;25241;-89
2023/08/25 13:40:40;;;;;;;2.63;1.80;;;16.10;99.90;;;;;;1916401;73;25682;-89
2023/08/25 13:43:29;;;;;;;3.60;1.90;;;16.10;99.90;;;;;;1882823;75;26173;-89
2023/08/25 13:46:17;;;;;;;7.60;2.00;;;16.10;99.90;;;;;;1883789;75;25719;-88
2023/08/25 13:51:46;;;;;;;6.17;1.83;;;15.80;99.90;;;;;;1926628;72;27141;-89
2023/08/25 13:57:15;;;;;;;2.97;1.90;;;15.40;99.90;;;;;;1952207;72;27020;-90
2023/08/25 14:00:05;;;;;;;3.83;1.97;;;15.40;99.90;;;;;;1917080;73;25183;-90
2023/08/25 14:05:35;;;;;;;9.40;1.87;;;15.20;99.90;;;;;;1935087;72;26931;-88
2023/08/25 14:08:25;;;;;;;3.80;1.90;;;15.20;99.90;;;;;;1920316;73;25184;-89
2023/08/25 14:11:14;;;;;;;2.07;1.80;;;15.30;99.90;;;;;;1922335;72;25664;-89
2023/08/25 14:14:03;;;;;;;2.30;1.77;;;15.30;99.90;;;;;;1943453;72;25699;-89
2023/08/25 14:19:32;;;;;;;3.13;1.97;;;15.40;99.90;;;;;;1911644;72;27592;-88
2023/08/25 14:22:21;;;;;;;4.67;2.13;;;15.40;99.90;;;;;;1910153;74;25318;-90
2023/08/25 14:25:11;;;;;;;2.23;1.77;;;15.50;99.90;;;;;;1911107;74;25786;-90
2023/08/25 14:28:00;;;;;;;4.17;2.03;;;15.60;99.90;;;;;;1906052;74;25320;-90
2023/08/25 14:30:48;;;;;;;3.67;1.77;;;15.70;99.90;;;;;;1914577;75;25249;-90
2023/08/25 14:33:37;;;;;;;3.13;1.90;;;15.90;99.90;;;;;;1900979;75;25733;-90
2023/08/25 14:36:26;;;;;;;2.93;1.87;;;16.00;99.90;;;;;;1897051;74;25273;-90
2023/08/25 14:39:15;;;;;;;2.47;2.00;;;16.00;99.90;;;;;;1909244;74;25786;-90
2023/08/25 14:42:05;;;;;;;3.10;2.23;;;16.10;99.90;;;;;;1878628;74;25285;-90
2023/08/25 14:44:54;;;;;;;4.13;2.60;;;16.10;99.90;;;;;;1871105;76;25709;-90
2023/08/25 14:47:43;;;;;;;4.43;2.13;;;16.00;99.90;;;;;;1872790;75;25319;-90
2023/08/25 14:50:33;;;;;;;4.27;2.30;;;15.90;99.90;;;;;;1863202;76;25821;-90
2023/08/25 14:53:21;;;;;;;2.50;2.30;;;15.70;99.90;;;;;;1869433;76;25256;-90
2023/08/25 14:56:12;;;;;;;7.30;2.30;;;15.50;99.90;;;;;;1863606;75;25273;-90
2023/08/25 15:01:46;;;;;;;3.57;2.00;;;15.40;99.90;;;;;;1930847;72;27088;-89
2023/08/25 15:04:35;;;;;;;4.63;2.57;;;15.20;99.90;;;;;;1900613;75;25297;-88
2023/08/25 15:07:24;;;;;;;3.90;2.60;;;15.10;99.90;;;;;;1904063;74;25316;-88
2023/08/25 15:12:55;;;;;;;4.97;2.63;;;15.00;99.90;;;;;;1947185;72;27096;-88
2023/08/25 15:15:44;;;;;;;8.50;2.87;;;15.00;99.90;;;;;;1932370;73;25328;-88
2023/08/25 15:21:14;;;;;;;5.23;2.80;;;15.00;99.90;;;;;;2015058;69;26941;-89
2023/08/25 15:27:18;;;;;;;4.23;3.00;;;14.90;99.90;;;;;;1969894;72;27664;-88
2023/08/25 15:30:10;;;;;;;9.00;3.40;;;14.90;99.90;;;;;;1962033;72;25241;-88
2023/08/25 15:32:58;;;;;;;3.57;2.30;;;14.90;99.90;;;;;;1967281;72;25318;-88
2023/08/25 15:35:47;;;;;;;5.53;2.90;;;14.80;99.90;;;;;;1972923;71;25298;-88
2023/08/25 15:38:37;;;;;;;4.20;2.60;;;14.80;99.90;;;;;;1955390;72;25674;-88
2023/08/25 15:44:11;;;;;;;6.27;2.63;;;14.80;99.90;;;;;;1920259;72;26915;-89
2023/08/25 17:00:21;;;;;;;4.17;2.83;;;14.70;99.90;;;;;;1814246;76;25287;-94
2023/08/25 17:03:10;;;;;;;5.17;2.90;;;14.60;99.90;;;;;;1838759;76;25326;-93
2023/08/25 17:06:03;;;;;;;8.00;3.10;;;14.60;99.90;;;;;;1822256;76;25817;-93
2023/08/25 17:22:50;;;;;;;6.73;3.17;;;14.70;99.90;;;;;;1922256;73;27116;-94
2023/08/25 17:59:00;;;;;;;6.70;2.73;;;14.40;99.90;;;;;;1957459;72;26998;-92
2023/08/25 18:01:49;;;;;;;6.77;3.17;;;14.40;99.90;;;;;;1928550;72;25355;-91
2023/08/25 18:04:39;;;;;;;3.73;2.47;;;14.40;99.90;;;;;;1934849;72;25219;-92
2023/08/25 18:21:13;;;;;;;4.23;2.83;;;14.40;99.90;;;;;;1931947;73;27136;-93
2023/08/25 18:50:14;;;;;;;2.97;2.07;;;14.30;99.90;;;;;;1902417;74;27744;-92
2023/08/25 19:06:14;;;;;;;3.07;2.37;;;14.40;99.90;;;;;;1902082;74;26764;-92
2023/08/25 19:33:54;;;;;;;3.73;2.13;;;14.40;99.90;;;;;;1945184;72;26370;-92
2023/08/25 20:05:22;;;;;;;5.67;3.30;;;14.40;99.90;;;;;;1904122;73;26394;-91
2023/08/25 20:08:11;;;;;;;7.83;2.73;;;14.30;99.90;;;;;;1920087;72;25243;-91
2023/08/25 20:13:52;;;;;;;4.77;3.10;;;14.30;99.90;;;;;;1943790;72;26966;-90
2023/08/25 20:16:41;;;;;;;10.97;3.10;;;14.20;99.90;;;;;;1942215;73;25318;-90
2023/08/25 20:19:30;;;;;;;5.03;3.10;;;14.20;99.90;;;;;;1921346;73;25742;-91
2023/08/25 20:40:44;;;;;;;4.07;3.17;;;14.30;99.90;;;;;;1917420;73;26544;-91
2023/08/25 20:46:25;;;;;;;3.87;2.63;;;14.40;99.90;;;;;;1906036;74;27086;-91
